createdAt,value
2022-08-10T00:01:55.558Z,67.90
2022-08-10T00:04:26.423Z,68.00
2022-08-10T00:06:59.201Z,68.10
2022-08-10T00:09:28.277Z,68.10
2022-08-10T00:11:57.368Z,68.10
2022-08-10T00:14:26.494Z,68.20
2022-08-10T00:16:55.645Z,68.20
2022-08-10T00:19:28.594Z,68.20
2022-08-10T00:22:17.705Z,68.30
2022-08-10T00:24:46.858Z,68.40
2022-08-10T00:27:57.933Z,68.40
2022-08-10T00:30:05.963Z,68.50
2022-08-10T00:32:35.183Z,68.40
2022-08-10T00:35:06.669Z,68.40
2022-08-10T00:37:37.748Z,68.50
2022-08-10T00:40:08.225Z,68.60
2022-08-10T00:42:37.408Z,68.30
2022-08-10T00:45:07.511Z,68.40
2022-08-10T00:47:37.854Z,68.60
2022-08-10T00:50:10.092Z,68.60
2022-08-10T00:52:40.351Z,68.70
2022-08-10T00:55:09.934Z,68.80
2022-08-10T00:57:40.647Z,68.80
2022-08-10T01:00:10.977Z,68.80
2022-08-10T01:02:40.728Z,68.80
2022-08-10T01:05:14.503Z,68.90
2022-08-10T01:08:04.284Z,69.10
2022-08-10T01:10:42.809Z,69.20
2022-08-10T01:13:17.972Z,69.20
2022-08-10T01:15:55.482Z,69.30
2022-08-10T01:18:37.811Z,69.30
2022-08-10T01:21:35.403Z,69.40
2022-08-10T01:24:17.912Z,69.40
2022-08-10T01:27:14.606Z,69.40
2022-08-10T01:30:07.988Z,69.30
2022-08-10T01:32:48.946Z,69.30
2022-08-10T01:35:25.803Z,69.20
2022-08-10T01:38:03.611Z,69.10
2022-08-10T01:40:36.434Z,69.00
2022-08-10T01:43:09.907Z,69.00
2022-08-10T01:45:46.299Z,69.10
2022-08-10T01:48:31.409Z,69.20
2022-08-10T01:51:10.387Z,69.10
2022-08-10T01:53:44.220Z,69.20
2022-08-10T01:56:16.614Z,69.20
2022-08-10T01:58:48.849Z,69.30
2022-08-10T02:01:24.470Z,69.30
2022-08-10T02:04:03.979Z,69.20
2022-08-10T02:06:36.903Z,70.10
2022-08-10T02:09:09.068Z,69.20
2022-08-10T02:12:06.435Z,69.00
2022-08-10T02:14:34.645Z,69.20
2022-08-10T02:17:08.939Z,69.40
2022-08-10T02:20:03.299Z,69.60
2022-08-10T02:22:36.027Z,69.80
2022-08-10T02:25:09.650Z,70.00
2022-08-10T02:27:59.403Z,70.10
2022-08-10T02:30:30.270Z,70.20
2022-08-10T02:33:02.666Z,70.20
2022-08-10T02:35:40.552Z,70.30
2022-08-10T02:38:58.299Z,70.30
2022-08-10T02:45:13.076Z,70.40
2022-08-10T02:45:21.692Z,70.50
2022-08-10T02:47:18.793Z,70.50
2022-08-10T02:49:55.869Z,70.60
2022-08-10T02:52:30.571Z,70.60
2022-08-10T02:55:17.224Z,70.70
2022-08-10T02:58:16.615Z,70.80
2022-08-10T03:00:46.635Z,70.70
2022-08-10T03:03:21.514Z,70.60
2022-08-10T03:05:56.696Z,70.70
2022-08-10T03:08:29.764Z,70.80
2022-08-10T03:11:03.370Z,70.80
2022-08-10T03:13:34.912Z,70.80
2022-08-10T03:16:06.250Z,70.90
2022-08-10T03:18:36.333Z,71.00
2022-08-10T03:21:11.819Z,71.10
2022-08-10T03:23:44.128Z,71.20
2022-08-10T03:26:20.321Z,71.20
2022-08-10T03:28:50.123Z,71.20
2022-08-10T03:31:19.806Z,71.30
2022-08-10T03:33:49.412Z,71.30
2022-08-10T03:36:43.573Z,71.30
2022-08-10T03:39:09.340Z,71.40
2022-08-10T03:41:41.807Z,71.30
2022-08-10T03:44:26.243Z,71.40
2022-08-10T03:46:56.488Z,71.40
2022-08-10T03:49:28.129Z,71.50
2022-08-10T03:51:59.778Z,71.50
2022-08-10T03:54:29.342Z,71.50
2022-08-10T03:56:58.557Z,71.50
2022-08-10T03:59:28.131Z,71.50
2022-08-10T04:02:44.495Z,71.50
2022-08-10T04:04:49.327Z,71.60
2022-08-10T04:07:20.267Z,71.60
2022-08-10T04:09:55.047Z,71.50
2022-08-10T04:12:24.914Z,71.60
2022-08-10T04:14:54.140Z,71.70
2022-08-10T04:18:04.194Z,71.70
2022-08-10T04:20:19.775Z,71.70
2022-08-10T04:22:54.633Z,71.70
2022-08-10T04:25:25.318Z,71.80
2022-08-10T04:27:55.397Z,71.80
2022-08-10T04:30:27.832Z,71.80
2022-08-10T04:32:59.855Z,71.70
2022-08-10T04:35:30.322Z,71.70
2022-08-10T04:38:03.333Z,71.60
2022-08-10T04:40:32.592Z,71.70
2022-08-10T04:43:08.943Z,71.60
2022-08-10T04:45:49.796Z,71.70
2022-08-10T04:48:40.414Z,71.70
2022-08-10T04:51:18.320Z,71.80
2022-08-10T04:54:06.168Z,71.90
2022-08-10T04:56:37.475Z,71.90
2022-08-10T04:59:07.620Z,72.00
2022-08-10T05:01:37.744Z,72.00
2022-08-10T05:04:36.093Z,72.10
2022-08-10T05:07:16.323Z,72.10
2022-08-10T05:10:02.867Z,72.10
2022-08-10T05:12:36.382Z,72.10
2022-08-10T05:15:08.498Z,72.20
2022-08-10T05:17:38.322Z,72.20
2022-08-10T05:20:09.570Z,72.30
2022-08-10T05:22:41.785Z,72.40
2022-08-10T05:25:14.246Z,72.50
2022-08-10T05:27:44.761Z,72.60
2022-08-10T05:30:17.014Z,72.70
2022-08-10T05:32:56.209Z,72.80
2022-08-10T05:35:55.105Z,72.80
2022-08-10T05:38:21.545Z,72.80
2022-08-10T05:40:52.229Z,72.80
2022-08-10T05:43:23.019Z,72.80
2022-08-10T05:46:16.757Z,72.80
2022-08-10T05:48:59.297Z,73.00
2022-08-10T05:51:31.139Z,73.00
2022-08-10T05:54:05.956Z,72.90
2022-08-10T05:56:54.191Z,72.90
2022-08-10T06:00:11.102Z,72.80
2022-08-10T06:02:31.235Z,72.70
2022-08-10T06:05:06.330Z,72.40
2022-08-10T06:07:39.071Z,72.20
2022-08-10T06:10:12.788Z,72.00
2022-08-10T06:12:55.630Z,71.70
2022-08-10T06:15:45.638Z,71.40
2022-08-10T06:18:16.266Z,71.20
2022-08-10T06:20:47.662Z,71.00
2022-08-10T06:23:16.885Z,70.70
2022-08-10T06:26:11.037Z,70.60
2022-08-10T06:28:39.273Z,70.10
2022-08-10T06:31:10.602Z,69.70
2022-08-10T06:33:40.470Z,69.30
2022-08-10T06:36:10.693Z,68.90
2022-08-10T06:38:41.888Z,68.70
2022-08-10T06:41:19.991Z,68.40
2022-08-10T06:43:57.994Z,68.10
2022-08-10T06:46:29.534Z,67.60
2022-08-10T06:49:02.638Z,67.20
2022-08-10T06:51:35.501Z,66.80
2022-08-10T06:54:07.725Z,66.30
2022-08-10T06:56:50.924Z,65.80
2022-08-10T06:59:41.721Z,65.40
2022-08-10T07:02:14.228Z,65.20
2022-08-10T07:04:47.779Z,65.00
2022-08-10T07:07:21.620Z,64.70
2022-08-10T07:09:52.916Z,64.40
2022-08-10T07:12:25.485Z,64.00
2022-08-10T07:14:58.239Z,63.50
2022-08-10T07:17:28.894Z,63.00
2022-08-10T07:20:00.594Z,62.80
2022-08-10T07:23:50.818Z,62.40
2022-08-10T07:25:25.285Z,61.80
2022-08-10T07:27:58.545Z,61.60
2022-08-10T07:30:35.120Z,61.20
2022-08-10T07:33:05.933Z,61.00
2022-08-10T07:35:42.868Z,60.60
2022-08-10T07:38:22.207Z,60.10
2022-08-10T07:40:54.372Z,59.90
2022-08-10T07:43:24.502Z,59.70
2022-08-10T07:45:59.017Z,59.60
2022-08-10T07:48:31.191Z,59.60
2022-08-10T07:51:02.915Z,59.20
2022-08-10T07:53:34.973Z,58.80
2022-08-10T07:56:17.000Z,58.60
2022-08-10T07:58:58.946Z,58.60
2022-08-10T08:01:33.734Z,58.20
2022-08-10T08:04:05.436Z,57.80
2022-08-10T08:06:41.952Z,57.40
2022-08-10T08:09:12.031Z,57.20
2022-08-10T08:11:44.505Z,56.90
2022-08-10T08:14:15.909Z,56.70
2022-08-10T08:16:47.649Z,56.50
2022-08-10T08:19:38.047Z,56.40
2022-08-10T08:24:07.518Z,56.40
2022-08-10T08:24:59.230Z,56.40
2022-08-10T08:27:29.673Z,56.00
2022-08-10T08:29:59.556Z,55.60
2022-08-10T08:32:32.915Z,55.20
2022-08-10T08:35:06.524Z,55.00
2022-08-10T08:38:29.954Z,55.50
2022-08-10T08:40:30.379Z,56.00
2022-08-10T08:43:25.494Z,56.20
2022-08-10T08:46:28.634Z,56.60
2022-08-10T08:50:07.536Z,56.90
2022-08-10T08:52:36.561Z,57.00
2022-08-10T08:56:03.884Z,56.80
2022-08-10T08:58:21.623Z,56.80
2022-08-10T09:00:58.992Z,57.00
2022-08-10T09:04:05.917Z,57.20
2022-08-10T09:07:39.275Z,57.20
2022-08-10T09:10:04.568Z,57.10
2022-08-10T09:12:44.877Z,57.20
2022-08-10T09:15:41.068Z,58.10
2022-08-10T09:18:19.196Z,57.10
2022-08-10T09:20:52.458Z,56.90
2022-08-10T09:24:01.694Z,56.70
2022-08-10T09:26:22.628Z,56.60
2022-08-10T09:29:11.750Z,56.60
2022-08-10T09:31:55.853Z,57.40
2022-08-10T09:36:26.172Z,56.40
2022-08-10T09:38:02.721Z,56.40
2022-08-10T09:40:58.963Z,56.70
2022-08-10T09:43:48.570Z,56.80
2022-08-10T09:46:27.658Z,57.00
2022-08-10T09:49:06.698Z,57.20
2022-08-10T09:51:47.064Z,57.00
2022-08-10T09:54:31.478Z,57.00
2022-08-10T09:57:41.523Z,57.00
2022-08-10T10:00:08.935Z,57.00
2022-08-10T10:02:47.355Z,57.00
2022-08-10T10:05:28.444Z,56.90
2022-08-10T10:08:08.579Z,56.70
2022-08-10T10:10:47.529Z,56.60
2022-08-10T10:13:41.613Z,56.60
2022-08-10T10:16:29.950Z,56.40
2022-08-10T10:19:09.199Z,56.10
2022-08-10T10:21:55.047Z,56.10
2022-08-10T10:24:34.481Z,56.30
2022-08-10T10:27:16.487Z,56.70
2022-08-10T10:29:59.294Z,56.70
2022-08-10T10:32:42.681Z,56.70
2022-08-10T10:35:21.993Z,56.90
2022-08-10T10:38:01.276Z,57.10
2022-08-10T10:40:39.943Z,57.30
2022-08-10T10:43:22.406Z,57.40
2022-08-10T10:46:04.712Z,57.20
2022-08-10T10:48:41.568Z,57.20
2022-08-10T10:51:17.633Z,57.00
2022-08-10T10:53:53.385Z,56.70
2022-08-10T10:56:32.096Z,56.40
2022-08-10T10:59:33.318Z,56.20
2022-08-10T11:02:18.594Z,56.00
2022-08-10T11:04:59.150Z,55.10
2022-08-10T11:07:35.836Z,54.30
2022-08-10T11:10:32.414Z,53.90
2022-08-10T11:14:25.051Z,53.60
2022-08-10T11:16:09.991Z,53.10
2022-08-10T11:19:04.516Z,53.10
2022-08-10T11:21:44.156Z,52.70
2022-08-10T11:24:48.269Z,52.50
2022-08-10T11:27:31.572Z,52.20
2022-08-10T11:30:05.217Z,51.70
2022-08-10T11:32:48.402Z,51.50
2022-08-10T11:35:34.842Z,52.10
2022-08-10T11:38:31.924Z,52.30
2022-08-10T11:42:05.537Z,52.50
2022-08-10T11:44:09.512Z,52.90
2022-08-10T11:46:42.836Z,53.10
2022-08-10T11:49:14.856Z,53.10
2022-08-10T11:51:50.083Z,53.00
2022-08-10T11:54:27.056Z,52.60
2022-08-10T11:57:02.487Z,52.50
2022-08-10T11:59:57.994Z,52.50
2022-08-10T12:02:33.719Z,52.80
2022-08-10T12:05:08.054Z,53.00
2022-08-10T12:10:01.430Z,53.60
2022-08-10T12:10:33.782Z,52.70
2022-08-10T12:13:16.331Z,52.60
2022-08-10T12:15:54.735Z,52.20
2022-08-10T12:18:30.317Z,51.80
2022-08-10T12:21:03.986Z,51.10
2022-08-10T12:23:41.591Z,51.10
2022-08-10T12:26:16.041Z,50.70
2022-08-10T12:28:52.061Z,50.60
2022-08-10T12:31:27.984Z,50.40
2022-08-10T12:34:14.659Z,50.20
2022-08-10T12:36:48.187Z,50.40
2022-08-10T12:39:23.278Z,50.70
2022-08-10T12:41:57.988Z,51.40
2022-08-10T12:44:41.700Z,51.90
2022-08-10T12:47:21.415Z,51.80
2022-08-10T12:50:29.359Z,51.30
2022-08-10T12:52:53.638Z,51.00
2022-08-10T12:55:25.528Z,50.60
2022-08-10T12:57:57.378Z,50.40
2022-08-10T13:00:35.126Z,50.20
2022-08-10T13:03:07.725Z,50.30
2022-08-10T13:06:01.825Z,50.40
2022-08-10T13:08:56.200Z,50.30
2022-08-10T13:12:39.101Z,50.30
2022-08-10T13:14:24.299Z,50.00
2022-08-10T13:16:56.487Z,49.80
2022-08-10T13:19:54.489Z,49.60
2022-08-10T13:22:20.529Z,49.20
2022-08-10T13:24:55.647Z,48.60
2022-08-10T13:28:01.408Z,48.00
2022-08-10T13:30:33.427Z,47.50
2022-08-10T13:33:08.881Z,47.70
2022-08-10T13:35:38.741Z,47.90
2022-08-10T13:38:09.864Z,47.90
2022-08-10T13:40:40.777Z,47.80
2022-08-10T13:43:12.234Z,48.00
2022-08-10T13:45:47.820Z,48.20
2022-08-10T13:48:21.743Z,48.50
2022-08-10T13:50:52.769Z,48.60
2022-08-10T13:53:23.679Z,48.50
2022-08-10T13:55:57.409Z,48.70
2022-08-10T13:58:31.763Z,49.10
2022-08-10T14:01:02.842Z,49.20
2022-08-10T14:03:37.756Z,49.20
2022-08-10T14:06:08.858Z,49.40
2022-08-10T14:08:41.356Z,49.70
2022-08-10T14:11:15.716Z,49.90
2022-08-10T14:13:52.631Z,49.90
2022-08-10T14:16:22.378Z,49.90
2022-08-10T14:18:54.030Z,49.90
2022-08-10T14:21:23.463Z,50.00
2022-08-10T14:23:53.889Z,50.40
2022-08-10T14:26:27.192Z,51.40
2022-08-10T14:28:59.737Z,52.50
2022-08-10T14:31:33.827Z,53.00
2022-08-10T14:34:06.818Z,53.30
2022-08-10T14:36:43.398Z,53.40
2022-08-10T14:39:20.786Z,53.50
2022-08-10T14:42:03.854Z,53.70
2022-08-10T14:44:48.798Z,53.90
2022-08-10T14:48:03.244Z,54.30
2022-08-10T14:50:32.193Z,54.40
2022-08-10T14:53:09.665Z,54.80
2022-08-10T14:55:58.520Z,55.10
2022-08-10T14:58:34.125Z,55.20
2022-08-10T15:01:07.222Z,55.40
2022-08-10T15:03:59.160Z,55.40
2022-08-10T15:06:33.170Z,55.40
2022-08-10T15:09:05.547Z,55.50
2022-08-10T15:12:13.045Z,55.50
2022-08-10T15:14:43.118Z,55.60
2022-08-10T15:17:17.053Z,55.90
2022-08-10T15:20:02.353Z,56.20
2022-08-10T15:22:37.927Z,56.60
2022-08-10T15:25:18.661Z,56.70
2022-08-10T15:27:53.410Z,57.10
2022-08-10T15:30:31.593Z,57.40
2022-08-10T15:34:02.947Z,57.40
2022-08-10T15:36:35.057Z,57.40
2022-08-10T15:39:12.759Z,57.40
2022-08-10T15:41:58.679Z,57.30
2022-08-10T15:44:39.149Z,57.00
2022-08-10T15:47:12.311Z,56.80
2022-08-10T15:49:53.379Z,56.70
2022-08-10T15:52:39.968Z,56.30
2022-08-10T15:55:42.761Z,55.90
2022-08-10T15:58:14.077Z,55.50
2022-08-10T16:00:50.370Z,55.10
2022-08-10T16:03:27.366Z,54.60
2022-08-10T16:06:01.426Z,54.50
2022-08-10T16:08:56.667Z,54.60
2022-08-10T16:11:37.691Z,54.80
2022-08-10T16:14:15.211Z,54.80
2022-08-10T16:16:50.551Z,55.10
2022-08-10T16:19:25.158Z,55.30
2022-08-10T16:22:36.390Z,55.50
2022-08-10T16:24:58.455Z,55.70
2022-08-10T16:27:29.271Z,55.60
2022-08-10T16:30:02.426Z,55.60
2022-08-10T16:32:34.097Z,55.20
2022-08-10T16:35:09.351Z,54.90
2022-08-10T16:37:56.573Z,54.90
2022-08-10T16:40:30.390Z,54.80
2022-08-10T16:43:02.321Z,54.60
2022-08-10T16:45:35.712Z,54.40
2022-08-10T16:48:06.805Z,54.50
2022-08-10T16:50:41.922Z,54.50
2022-08-10T16:53:15.645Z,54.40
2022-08-10T16:55:50.646Z,54.40
2022-08-10T16:58:25.099Z,54.40
2022-08-10T17:00:55.313Z,54.50
2022-08-10T17:04:07.034Z,54.60
2022-08-10T17:06:23.667Z,54.80
2022-08-10T17:08:56.800Z,55.00
2022-08-10T17:11:33.627Z,55.30
2022-08-10T17:14:04.569Z,55.70
2022-08-10T17:16:39.853Z,55.90
2022-08-10T17:19:14.054Z,56.10
2022-08-10T17:21:51.345Z,56.20
2022-08-10T17:24:27.640Z,56.40
2022-08-10T17:26:59.076Z,56.50
2022-08-10T17:29:58.690Z,56.60
2022-08-10T17:32:31.394Z,56.70
2022-08-10T17:35:02.390Z,56.90
2022-08-10T17:37:37.602Z,57.00
2022-08-10T17:40:12.517Z,57.20
2022-08-10T17:42:42.285Z,57.20
2022-08-10T17:45:45.985Z,57.20
2022-08-10T17:48:09.473Z,57.40
2022-08-10T17:50:41.921Z,57.30
2022-08-10T17:53:16.781Z,57.40
2022-08-10T17:55:50.023Z,57.50
2022-08-10T17:58:21.292Z,57.80
2022-08-10T18:00:52.450Z,58.00
2022-08-10T18:03:25.473Z,58.40
2022-08-10T18:05:57.729Z,58.60
2022-08-10T18:08:29.757Z,58.70
2022-08-10T18:11:01.837Z,58.80
2022-08-10T18:13:55.363Z,58.90
2022-08-10T18:16:27.309Z,59.00
2022-08-10T18:19:00.588Z,59.00
2022-08-10T18:21:32.417Z,59.10
2022-08-10T18:24:04.976Z,59.10
2022-08-10T18:26:38.844Z,59.10
2022-08-10T18:29:10.901Z,59.20
2022-08-10T18:31:44.822Z,59.10
2022-08-10T18:34:20.957Z,59.10
2022-08-10T18:36:52.589Z,59.10
2022-08-10T18:39:25.531Z,59.00
2022-08-10T18:42:05.956Z,59.00
2022-08-10T18:44:39.088Z,58.90
2022-08-10T18:47:14.085Z,58.80
2022-08-10T18:50:00.095Z,58.70
2022-08-10T18:52:33.252Z,58.60
2022-08-10T18:55:13.934Z,58.40
2022-08-10T18:57:52.849Z,58.40
2022-08-10T19:00:23.283Z,58.30
2022-08-10T19:03:12.097Z,58.20
2022-08-10T19:05:55.410Z,58.40
2022-08-10T19:08:57.321Z,58.70
2022-08-10T19:11:44.065Z,59.00
2022-08-10T19:14:19.381Z,59.10
2022-08-10T19:17:03.433Z,59.30
2022-08-10T19:19:41.295Z,59.50
2022-08-10T19:22:18.147Z,59.60
2022-08-10T19:24:55.759Z,59.80
2022-08-10T19:27:40.433Z,60.10
2022-08-10T19:30:16.363Z,60.40
2022-08-10T19:33:00.593Z,60.60
2022-08-10T19:36:04.231Z,60.70
2022-08-10T19:38:40.907Z,61.00
2022-08-10T19:41:32.488Z,61.00
2022-08-10T19:44:22.267Z,61.30
2022-08-10T19:47:03.349Z,61.60
2022-08-10T19:49:41.631Z,61.60
2022-08-10T19:52:19.708Z,61.70
2022-08-10T19:54:57.148Z,61.80
2022-08-10T19:57:34.555Z,62.10
2022-08-10T20:00:19.249Z,62.30
2022-08-10T20:03:10.633Z,62.60
2022-08-10T20:06:12.919Z,63.30
2022-08-10T20:08:56.754Z,63.40
2022-08-10T20:11:45.057Z,63.70
2022-08-10T20:14:22.991Z,63.90
2022-08-10T20:16:56.569Z,64.00
2022-08-10T20:19:54.046Z,64.20
2022-08-10T20:22:29.303Z,64.40
2022-08-10T20:25:05.208Z,64.40
2022-08-10T20:27:59.857Z,64.80
2022-08-10T20:30:30.136Z,65.10
2022-08-10T20:33:09.037Z,65.50
2022-08-10T20:35:49.715Z,65.70
2022-08-10T20:38:25.471Z,66.00
2022-08-10T20:41:07.402Z,66.10
2022-08-10T20:43:45.735Z,66.10
2022-08-10T20:46:23.674Z,66.20
2022-08-10T20:48:59.755Z,66.20
2022-08-10T20:51:57.500Z,66.20
2022-08-10T20:54:34.387Z,66.70
2022-08-10T20:57:55.192Z,66.20
2022-08-10T21:00:13.978Z,66.30
2022-08-10T21:03:07.558Z,66.30
2022-08-10T21:05:52.721Z,66.30
2022-08-10T21:08:35.413Z,66.20
2022-08-10T21:11:12.003Z,66.60
2022-08-10T21:14:01.818Z,66.80
2022-08-10T21:16:41.388Z,67.10
2022-08-10T21:19:39.025Z,67.20
2022-08-10T21:22:12.841Z,67.60
2022-08-10T21:24:52.291Z,67.40
2022-08-10T21:27:33.466Z,67.30
2022-08-10T21:30:09.244Z,67.40
2022-08-10T21:32:56.138Z,67.50
2022-08-10T21:35:37.378Z,68.00
2022-08-10T21:38:13.224Z,68.00
2022-08-10T21:41:18.689Z,68.10
2022-08-10T21:44:18.130Z,68.20
2022-08-10T21:47:41.691Z,68.20
2022-08-10T21:50:24.742Z,68.30
2022-08-10T21:53:43.859Z,68.40
2022-08-10T21:56:42.671Z,68.60
2022-08-10T21:59:34.772Z,68.80
2022-08-10T22:02:28.218Z,68.80
2022-08-10T22:05:20.211Z,68.80
2022-08-10T22:08:12.079Z,69.00
2022-08-10T22:11:02.570Z,69.00
2022-08-10T22:13:52.880Z,69.00
2022-08-10T22:16:51.226Z,69.10
2022-08-10T22:19:38.224Z,69.10
2022-08-10T22:22:28.506Z,69.10
2022-08-10T22:25:29.628Z,69.10
2022-08-10T22:28:18.150Z,69.00
2022-08-10T22:34:33.291Z,69.00
2022-08-10T22:37:36.631Z,68.90
2022-08-10T22:40:29.202Z,68.80
2022-08-10T22:43:35.859Z,68.90
2022-08-10T22:46:31.072Z,69.00
2022-08-10T22:49:02.359Z,69.10
2022-08-10T22:51:55.361Z,69.10
2022-08-10T22:54:49.641Z,69.30
2022-08-10T22:57:42.009Z,69.00
2022-08-10T23:00:14.349Z,69.10
2022-08-10T23:02:52.000Z,69.30
2022-08-10T23:05:32.288Z,69.40
2022-08-10T23:08:09.474Z,69.50
2022-08-10T23:10:44.709Z,69.60
2022-08-10T23:13:23.542Z,69.60
2022-08-10T23:16:28.380Z,69.70
2022-08-10T23:19:09.446Z,69.70
2022-08-10T23:22:03.195Z,69.80
2022-08-10T23:24:38.823Z,69.80
2022-08-10T23:27:13.208Z,69.60
2022-08-10T23:30:10.237Z,69.60
2022-08-10T23:32:45.396Z,69.60
2022-08-10T23:36:30.925Z,69.60
2022-08-10T23:38:08.741Z,69.60
2022-08-10T23:40:38.396Z,69.60
2022-08-10T23:43:08.755Z,69.60
2022-08-10T23:45:53.639Z,69.50
2022-08-10T23:48:26.229Z,69.50
2022-08-10T23:51:01.573Z,69.40
2022-08-10T23:53:33.661Z,69.50
2022-08-10T23:56:07.521Z,69.40
2022-08-10T23:58:42.081Z,69.20
